Relevés horaires Beauvechain (Belgique)


Relevés horaires à Beauvechain - Dimanche 01 Juill. 2018
Heure UTC1 Température [°C] Vent [km/h] Hum. [%] Pres.4 [hPa] Visi. [Km] Nébu. [octa] Préc.5 [mm] Cond.
2m. Res. Ros. Dir.2 Vit. Moy. Raf.3
23:00 18.0 18.0 5.9 E 3.7 -- 7.4 45 1014.5(0.4/3h) 20 -- -- --
22:00 19.6 19.6 5.4 E 3.7 -- 5.6 39 1014.5(0.8/3h) 20 -- -- --
21:00 20.1 20.1 5.6 ENE 3.7 -- 13.0 39 1014.2(0.6/3h) 20 -- -- --
20:00 21.3 21.3 5.6 ENE 3.7 -- 7.4 36 1013.8(0.3/3h) 20 -- -- --
19:00 24.0 24.0 5.5 ENE 3.7 -- 13.0 30 1013.5(0.0/3h) 20 -- -- --
18:00 25.5 25.5 5.7 ENE 7.4 -- 18.5 28 1013.3(-0.2/3h) 20 -- -- --
17:00 26.4 26.4 5.7 E 7.4 -- 14.8 27 1013.2(-0.3/3h) 20 -- -- --
16:00 26.9 26.9 5.6 ENE 9.3 -- 16.7 26 1013.3(-0.4/3h) 20 -- -- --
15:00 27.2 27.2 6.2 ENE 9.3 -- 18.5 26 1013.5(-0.6/3h) 20 -- -- --
14:00 27.2 27.2 6.9 ENE 11.1 -- 18.5 28 1013.6(-1.0/3h) 20 -- -- --
13:00 27.1 27.1 9.0 E 11.1 -- 16.7 32 1013.7(-0.9/3h) 20 -- -- --
12:00 26.3 26.3 8.4 ENE 9.3 -- 16.7 32 1014.2(-0.5/3h) 20 -- -- --
11:00 25.3 25.3 8.5 ENE 9.3 -- 16.7 34 1014.7(0.1/3h) 20 -- -- --
10:00 23.9 23.9 8.5 E 9.3 -- 14.8 37 1015(0.4/3h) 20 -- -- --
09:00 22.4 22.4 7.6 E 9.3 -- 14.8 39 1014.8(0.6/3h) 20 -- -- --
08:00 21.6 21.6 7.7 E 7.4 -- 13.0 41 1014.7(0.5/3h) 19 -- -- --
07:00 20.0 20.0 6.8 E 7.4 -- 11.1 42 1014.7(0.8/3h) 20 -- -- --
06:00 18.0 18.0 7.2 ENE 5.6 -- 11.1 49 1014.5(0.5/3h) 20 -- -- --
05:00 16.1 16.1 4.8 NNO 1.9 -- 9.3 47 1014.3(0.6/3h) 20 -- -- --
04:00 16.7 16.7 4.7 E 5.6 5.6 11.1 45 1014(0.3/3h) 20 -- -- --
03:00 16.2 16.2 6.2 ENE 3.7 -- 7.4 51 1014(0.3/3h) 20 -- -- --
02:00 18.0 18.0 6.2 E 3.7 -- 7.4 46 1013.6(0.1/3h) 20 -- -- --
01:00 18.4 18.4 7.2 E 3.7 -- 7.4 48 1013.6(0.1/3h) 11 -- -- --
00:00 19.4 19.4 6.9 ENE 3.7 -- 11.1 44 1013.3(0.0/3h) 20 -- -- --

1 Coordinated Universal Time. Actuellement il est 14:00 locale et 13:00 UTC.

2 Le vent souffle depuis la direction indiquée vers la direction oposée.

3 Les rafales max. sont disponible 40 min après l'heure du relevé.

4 Pour les stations d'altitude (plus de 600m) le géopotentiel du niveau le plus proche de la pression obligatoire est indiqué.

5 Les stations disposant d'un diffuseur peuvent indiquer "trace". Cela signifie que des précipitations ont touchés le sol mais que la quantité est inférieure à 0.1 mm.

Récapitulatif de la journée
Température [°C] Vent [km/h] Ensoleillement4 [h] Precipitations totale5 [mm] Pression [Hpa]
Min1 Max.2 Moy.3 Max. Min Max.
15.8 27.7 5.6 18.5 0 h 0 min 0 1013.2 1015.0

1 Température minimale relevée entre 18:00 UTC la veille et 18:00 UTC le jour donné.

2 Température maximale relevée entre 06:00 UTC le jour donné et 06:00 UTC le lendemain.

3 Vent moyen de la journée basé sur les relevés horaires.

4 Ensoleillement en heures relevé entre 06:00 UTC la veille et 06:00 UTC le jour donné.

5 Précipitations totales tombées entre 06:00 UTC la jour donné et 06:00 UTC le lendemain.

Graphiques horaires